Time;durP1;ratioP1;P1;durP2;ratioP2;P2;SDS_P1;SDS_P2;PMS_P1;PMS_P2;Temp;Humidity;BMP_temperature;BMP_pressure;BME280_temperature;BME280_humidity;BME280_pressure;Samples;Min_cycle;Max_cycle;Signal;HPM_P1;HPM_P2
2022/09/12 04:00:13;;;;;;;5.60;4.35;;;;;;;16.85;71.50;100333.00;5620277;31;86485;-57
2022/09/12 04:03:21;;;;;;;7.53;4.85;;;;;;;16.85;71.50;100333.00;5596820;31;34082;-58
2022/09/12 04:06:23;;;;;;;6.80;5.10;;;;;;;16.25;72.31;100342.78;5596814;31;33675;-57
2022/09/12 04:09:25;;;;;;;5.97;4.45;;;;;;;16.42;73.06;100340.09;5603482;31;34282;-57
2022/09/12 04:12:28;;;;;;;8.00;4.82;;;;;;;16.42;71.69;100339.25;5603228;31;33540;-58
2022/09/12 04:15:31;;;;;;;5.68;4.50;;;;;;;16.41;71.59;100330.34;5584348;31;33582;-58
2022/09/12 04:18:34;;;;;;;7.30;4.50;;;;;;;16.52;71.36;100324.63;5583990;31;33561;-58
2022/09/12 04:21:38;;;;;;;5.72;3.97;;;;;;;16.49;70.06;100334.19;5596898;31;33644;-58
2022/09/12 04:24:40;;;;;;;7.10;3.85;;;;;;;16.45;69.54;100325.88;5603439;31;33517;-58
2022/09/12 04:27:42;;;;;;;4.50;3.60;;;;;;;16.53;69.26;100334.34;5603310;31;33582;-58
2022/09/12 04:30:44;;;;;;;5.70;3.67;;;;;;;16.58;69.08;100334.94;5603320;31;33655;-58
2022/09/12 04:34:58;;;;;;;4.28;3.15;;;;;;;17.18;66.74;100319.66;5600197;31;121727;-58
2022/09/12 04:38:01;;;;;;;4.70;3.40;;;;;;;17.18;66.74;100319.66;5583800;32;33339;-58
2022/09/12 04:41:14;;;;;;;4.43;3.62;;;;;;;16.76;67.29;100333.03;5583934;31;33580;-58
2022/09/12 04:44:17;;;;;;;5.30;3.97;;;;;;;16.76;67.37;100338.47;5584127;32;33608;-58
2022/09/12 04:47:19;;;;;;;4.90;3.40;;;;;;;16.78;67.51;100338.91;5572081;31;34194;-58
2022/09/12 04:50:21;;;;;;;4.70;3.83;;;;;;;16.73;67.85;100341.78;5564074;32;33776;-58
2022/09/12 04:53:23;;;;;;;5.28;3.95;;;;;;;16.73;68.42;100341.78;5563899;32;33866;-58
2022/09/12 04:56:27;;;;;;;6.95;4.28;;;;;;;16.79;68.52;100345.94;5563836;32;34114;-58
2022/09/12 04:59:29;;;;;;;5.72;3.97;;;;;;;16.73;68.88;100349.91;5561183;32;33640;-58
2022/09/12 05:02:33;;;;;;;6.57;4.10;;;;;;;16.84;69.75;100355.78;5562626;32;34285;-58
2022/09/12 05:05:36;;;;;;;6.68;4.50;;;;;;;16.76;68.68;100359.31;5564034;32;33466;-58
2022/09/12 05:08:38;;;;;;;7.90;4.53;;;;;;;16.74;69.07;100362.31;5563583;32;33615;-58
2022/09/12 05:11:42;;;;;;;6.00;4.30;;;;;;;16.72;69.91;100361.84;5563769;32;33584;-58
2022/09/12 05:15:05;;;;;;;5.37;4.28;;;;;;;16.80;69.54;100365.69;5563678;32;34416;-58
2022/09/12 05:18:08;;;;;;;5.30;3.95;;;;;;;16.93;68.80;100363.91;5536427;32;34007;-58
2022/09/12 05:21:13;;;;;;;11.27;4.40;;;;;;;17.03;67.92;100375.16;5563781;32;33574;-58
2022/09/12 05:24:15;;;;;;;5.65;4.10;;;;;;;17.08;67.81;100374.97;5563656;32;33729;-58
2022/09/12 05:27:18;;;;;;;6.25;4.43;;;;;;;17.13;68.08;100380.22;5563106;32;34385;-58
2022/09/12 05:30:20;;;;;;;8.13;3.92;;;;;;;17.14;67.47;100383.72;5563096;32;33751;-58
2022/09/12 05:33:23;;;;;;;4.72;3.60;;;;;;;17.21;67.24;100385.94;5562680;32;33619;-58
2022/09/12 05:36:28;;;;;;;7.65;3.83;;;;;;;17.27;66.25;100387.34;5563181;32;33652;-58
2022/09/12 05:39:30;;;;;;;5.10;3.65;;;;;;;17.26;65.77;100381.16;5563243;32;34361;-58
2022/09/12 05:42:32;;;;;;;4.20;3.30;;;;;;;17.35;65.15;100389.22;5563317;32;33773;-58
2022/09/12 05:45:35;;;;;;;5.85;3.55;;;;;;;17.44;64.88;100384.56;5553079;32;33831;-57
2022/09/12 05:48:39;;;;;;;5.90;3.87;;;;;;;17.50;64.32;100387.91;5549876;32;33563;-58
2022/09/12 05:51:44;;;;;;;6.40;4.07;;;;;;;17.54;64.25;100386.91;5549561;32;33539;-58
2022/09/12 05:54:47;;;;;;;6.25;4.22;;;;;;;17.54;64.09;100388.81;5550010;32;34303;-58
2022/09/12 05:57:50;;;;;;;7.10;3.95;;;;;;;17.58;64.64;100387.88;5549637;32;33716;-58
2022/09/12 06:00:52;;;;;;;7.00;4.00;;;;;;;17.68;64.56;100385.87;5548065;32;33663;-58
2022/09/12 06:03:59;;;;;;;5.15;3.62;;;;;;;17.86;64.66;100392.03;5545074;32;34243;-58
2022/09/12 06:07:01;;;;;;;6.97;4.30;;;;;;;17.90;63.36;100403.81;5546311;32;33830;-58
2022/09/12 06:10:04;;;;;;;8.88;4.80;;;;;;;17.82;64.36;100398.12;5546946;32;34347;-58
2022/09/12 06:13:07;;;;;;;6.43;3.87;;;;;;;17.77;63.46;100394.81;5532862;32;33650;-58
2022/09/12 06:16:11;;;;;;;6.50;4.20;;;;;;;17.74;63.90;100396.22;5547156;32;32079;-58
2022/09/12 06:19:17;;;;;;;6.10;3.65;;;;;;;17.87;63.53;100407.97;5546367;32;33127;-58
2022/09/12 06:22:19;;;;;;;6.10;4.18;;;;;;;17.81;64.07;100398.44;5547585;32;33621;-58
2022/09/12 06:25:21;;;;;;;7.03;4.18;;;;;;;17.76;64.42;100396.72;5547177;32;33737;-57
2022/09/12 06:28:25;;;;;;;6.07;4.62;;;;;;;17.75;63.26;100408.66;5548627;32;32954;-58
2022/09/12 06:31:30;;;;;;;5.70;4.07;;;;;;;17.67;63.77;100401.34;5545939;32;33609;-58
2022/09/12 06:34:32;;;;;;;6.05;4.45;;;;;;;17.80;65.61;100403.06;5548514;32;33616;-58
2022/09/12 06:37:35;;;;;;;6.53;4.72;;;;;;;17.94;63.28;100407.47;5547345;32;34522;-58
2022/09/12 06:40:45;;;;;;;5.55;4.43;;;;;;;17.95;62.41;100409.06;5546933;32;33658;-58
2022/09/12 06:43:47;;;;;;;5.25;4.05;;;;;;;18.03;62.37;100409.00;5544522;32;33831;-58
2022/09/12 06:46:49;;;;;;;9.02;4.12;;;;;;;18.02;61.69;100406.63;5544670;32;34105;-58
2022/09/12 06:49:51;;;;;;;7.30;3.85;;;;;;;18.13;61.63;100409.72;5548743;32;35281;-58
2022/09/12 06:52:54;;;;;;;8.90;4.40;;;;;;;18.23;61.68;100402.00;5547699;32;33600;-58
2022/09/12 06:56:01;;;;;;;4.82;3.55;;;;;;;18.32;61.02;100407.34;5541100;32;33770;-58
2022/09/12 06:59:04;;;;;;;5.80;4.35;;;;;;;18.47;59.06;100411.38;5534441;32;33647;-58
2022/09/12 07:02:07;;;;;;;9.05;4.15;;;;;;;18.50;60.73;100416.16;5552777;32;32972;-58
2022/09/12 07:05:10;;;;;;;5.80;3.55;;;;;;;18.53;59.98;100412.75;5548065;32;35154;-58
2022/09/12 07:08:14;;;;;;;5.72;3.62;;;;;;;18.59;59.20;100408.72;5533789;32;33708;-58
2022/09/12 07:11:19;;;;;;;5.93;3.92;;;;;;;18.65;58.22;100407.41;5548268;32;34393;-58
2022/09/12 07:14:22;;;;;;;3.67;3.28;;;;;;;18.68;58.37;100405.94;5548172;32;33741;-58
2022/09/12 07:17:26;;;;;;;4.72;3.58;;;;;;;18.70;57.57;100409.09;5546338;32;33400;-58
2022/09/12 07:20:31;;;;;;;4.18;3.33;;;;;;;18.76;58.51;100422.16;5549679;32;33712;-58
2022/09/12 07:23:35;;;;;;;4.93;3.67;;;;;;;18.80;57.35;100407.91;5545444;32;34294;-58
2022/09/12 07:26:39;;;;;;;5.55;3.60;;;;;;;18.88;57.04;100410.56;5542089;32;33671;-58
2022/09/12 07:29:43;;;;;;;5.55;3.42;;;;;;;19.00;57.57;100412.50;5546163;32;33695;-58
2022/09/12 07:32:45;;;;;;;4.97;3.12;;;;;;;18.97;56.59;100414.00;5547878;32;33708;-58
2022/09/12 07:35:47;;;;;;;8.10;3.72;;;;;;;19.02;56.25;100415.69;5548350;32;33598;-58
2022/09/12 07:38:55;;;;;;;7.32;3.45;;;;;;;19.01;56.95;100420.34;5548918;32;33356;-58
2022/09/12 07:41:59;;;;;;;15.77;3.70;;;;;;;18.94;56.78;100425.53;5548771;32;34355;-58
2022/09/12 07:45:01;;;;;;;6.12;3.70;;;;;;;18.71;57.68;100435.16;5548742;32;32261;-58
2022/09/12 07:48:04;;;;;;;8.38;4.00;;;;;;;18.70;57.56;100437.03;5547698;32;33580;-58
2022/09/12 07:51:09;;;;;;;11.48;3.55;;;;;;;18.71;57.81;100430.50;5547513;32;33321;-58
2022/09/12 07:54:11;;;;;;;8.88;3.60;;;;;;;18.75;57.52;100422.50;5547604;32;34397;-58
2022/09/12 07:57:14;;;;;;;7.28;3.78;;;;;;;18.68;56.90;100425.75;5547502;32;33561;-58
2022/09/12 08:00:17;;;;;;;4.28;3.33;;;;;;;18.68;56.92;100431.16;5547206;32;34413;-58
2022/09/12 08:03:19;;;;;;;4.90;3.20;;;;;;;18.71;56.28;100425.06;5545857;32;34394;-58
2022/09/12 08:06:23;;;;;;;4.55;3.10;;;;;;;18.72;57.17;100436.75;5548366;32;34549;-58
2022/09/12 08:09:25;;;;;;;5.93;3.30;;;;;;;18.82;55.17;100432.84;5539314;32;33700;-58
2022/09/12 08:12:28;;;;;;;5.28;3.67;;;;;;;18.95;55.35;100426.31;5543464;32;33436;-58
2022/09/12 08:15:30;;;;;;;5.12;3.47;;;;;;;19.17;55.41;100423.22;5535893;32;33107;-58
2022/09/12 08:18:34;;;;;;;4.30;3.20;;;;;;;19.26;54.87;100423.09;5545128;32;33627;-57
2022/09/12 08:21:36;;;;;;;5.85;3.53;;;;;;;19.28;53.35;100426.28;5547315;32;34383;-58
2022/09/12 08:24:39;;;;;;;4.70;3.45;;;;;;;19.31;54.34;100427.53;5547683;32;33674;-58
2022/09/12 08:27:41;;;;;;;5.80;3.55;;;;;;;19.39;54.25;100415.75;5541932;32;33906;-58
2022/09/12 08:30:43;;;;;;;7.93;3.78;;;;;;;19.52;54.38;100428.22;5534708;32;34329;-58
2022/09/12 08:33:46;;;;;;;5.93;3.78;;;;;;;19.53;54.10;100423.56;5548009;32;33192;-58
2022/09/12 08:36:48;;;;;;;6.78;3.40;;;;;;;19.57;53.70;100422.56;5544687;32;33272;-58
2022/09/12 08:39:51;;;;;;;8.27;4.05;;;;;;;19.60;53.78;100426.50;5543799;32;33448;-58
2022/09/12 08:43:18;;;;;;;5.72;3.60;;;;;;;19.55;53.80;100424.81;5545965;32;34343;-58
2022/09/12 08:47:25;;;;;;;4.87;3.60;;;;;;;19.57;53.97;100421.75;5544283;32;34272;-58
2022/09/12 08:50:28;;;;;;;5.60;3.15;;;;;;;19.68;53.75;100422.94;5453218;32;34316;-58
2022/09/12 08:53:34;;;;;;;6.65;3.53;;;;;;;19.74;53.02;100415.34;5545922;32;33222;-58
2022/09/12 08:56:38;;;;;;;6.68;3.40;;;;;;;19.82;52.17;100417.16;5547533;32;34339;-58
2022/09/12 08:59:43;;;;;;;7.00;3.20;;;;;;;19.84;53.11;100404.78;5542018;32;34601;-58
2022/09/12 09:02:56;;;;;;;7.35;3.65;;;;;;;19.87;51.93;100412.28;5545626;32;33801;-57
2022/09/12 09:06:13;;;;;;;8.02;3.25;;;;;;;19.97;54.03;100413.75;5546397;32;33693;-58
2022/09/12 09:09:14;;;;;;;;;;;;;;;19.97;53.76;100411.00;5545902;32;33922;-58
2022/09/12 09:12:59;;;;;;;4.65;3.10;;;;;;;20.07;53.53;100413.25;5542797;32;33893;-58
2022/09/12 09:16:10;;;;;;;5.70;3.45;;;;;;;20.09;53.93;100405.53;5543169;32;32266;-58
2022/09/12 09:19:25;;;;;;;6.03;3.47;;;;;;;20.21;52.54;100409.38;5545053;32;33397;-58
2022/09/12 09:22:37;;;;;;;4.22;2.92;;;;;;;20.21;51.60;100412.88;5542965;32;33330;-58
2022/09/12 09:25:57;;;;;;;6.07;3.12;;;;;;;20.24;52.02;100408.69;5548905;32;33726;-58
2022/09/12 09:29:13;;;;;;;6.60;2.97;;;;;;;20.24;51.59;100408.69;5545722;32;34319;-58
2022/09/12 09:32:25;;;;;;;3.85;2.80;;;;;;;20.25;50.97;100413.00;5548075;32;34411;-58
2022/09/12 09:35:44;;;;;;;3.25;2.62;;;;;;;20.31;51.31;100417.84;5547528;32;34292;-58
2022/09/12 09:38:54;;;;;;;7.43;2.58;;;;;;;20.23;50.63;100402.47;5545699;32;33494;-58
2022/09/12 09:42:18;;;;;;;7.87;3.00;;;;;;;20.22;50.65;100405.50;5548040;32;33609;-58
2022/09/12 09:45:23;;;;;;;8.70;2.80;;;;;;;20.27;52.01;100410.72;5548478;32;33639;-58
2022/09/12 09:48:37;;;;;;;4.72;2.70;;;;;;;20.39;51.30;100407.94;5546442;32;33651;-58
2022/09/12 09:51:41;;;;;;;4.00;3.03;;;;;;;20.44;51.45;100409.66;5545746;32;33749;-58
2022/09/12 09:54:49;;;;;;;3.75;2.70;;;;;;;20.52;51.44;100404.06;5547795;32;33667;-58
2022/09/12 09:57:52;;;;;;;3.83;2.47;;;;;;;20.57;50.55;100412.00;5545858;32;33070;-58
2022/09/12 10:01:01;;;;;;;4.62;2.90;;;;;;;20.59;50.98;100409.72;5548237;32;33821;-58
2022/09/12 10:04:04;;;;;;;4.60;2.67;;;;;;;20.68;51.86;100414.22;5543351;32;34420;-58
2022/09/12 10:07:17;;;;;;;3.83;3.08;;;;;;;20.65;52.52;100404.81;5549669;32;33537;-58
2022/09/12 10:10:24;;;;;;;6.20;3.40;;;;;;;20.70;52.86;100395.63;5548743;32;33747;-58
2022/09/12 10:13:50;;;;;;;3.70;2.72;;;;;;;20.83;53.54;100410.75;5548203;32;33730;-58
2022/09/12 10:16:52;;;;;;;5.00;2.80;;;;;;;20.79;50.87;100399.75;5548198;32;33721;-58
2022/09/12 10:19:55;;;;;;;4.35;2.50;;;;;;;20.64;49.98;100403.25;5548329;32;33825;-58
2022/09/12 10:23:18;;;;;;;5.37;2.80;;;;;;;20.40;49.76;100415.00;5549011;32;33716;-57
2022/09/12 10:26:20;;;;;;;2.83;2.40;;;;;;;20.22;50.51;100417.19;5549171;32;34010;-58
2022/09/12 10:29:30;;;;;;;3.87;3.03;;;;;;;20.15;51.43;100416.97;5547927;32;34664;-58
2022/09/12 10:32:38;;;;;;;4.43;2.90;;;;;;;20.11;52.29;100425.03;5544645;32;34189;-58
2022/09/12 10:35:44;;;;;;;5.15;3.10;;;;;;;20.07;53.91;100424.16;5549639;32;33946;-58
2022/09/12 10:38:49;;;;;;;4.65;2.83;;;;;;;20.10;52.75;100412.56;5546988;32;33703;-58
2022/09/12 10:41:52;;;;;;;4.32;3.03;;;;;;;20.25;53.67;100418.44;5547394;32;33711;-58
2022/09/12 10:44:54;;;;;;;3.55;3.10;;;;;;;20.28;53.13;100413.09;5548719;32;34291;-58
2022/09/12 10:48:00;;;;;;;4.80;3.00;;;;;;;20.36;53.51;100414.06;5539387;32;33656;-58
2022/09/12 10:51:26;;;;;;;7.07;3.12;;;;;;;20.56;53.84;100396.00;5540200;32;34292;-58
2022/09/12 10:54:29;;;;;;;5.25;3.10;;;;;;;20.72;54.02;100391.38;5550448;32;33934;-58
2022/09/12 10:58:00;;;;;;;3.30;2.72;;;;;;;20.83;53.65;100391.69;5548364;32;33307;-58
2022/09/12 11:01:12;;;;;;;3.65;2.83;;;;;;;20.92;51.79;100386.06;5547633;32;31803;-58
2022/09/12 11:04:23;;;;;;;4.28;2.70;;;;;;;20.79;52.18;100386.13;5547436;32;34124;-58
2022/09/12 11:07:44;;;;;;;3.78;2.67;;;;;;;20.74;51.36;100389.13;5545615;32;33815;-58
2022/09/12 11:10:58;;;;;;;4.12;2.65;;;;;;;20.75;50.99;100396.13;5547455;32;33859;-58
2022/09/12 11:14:45;;;;;;;4.37;2.33;;;;;;;20.62;52.17;100400.06;5543890;32;33782;-58
2022/09/12 11:17:47;;;;;;;2.90;2.10;;;;;;;20.53;50.05;100402.13;5459447;32;34193;-58
2022/09/12 11:21:09;;;;;;;3.53;1.85;;;;;;;20.45;49.14;100400.34;5465310;32;33236;-58
2022/09/12 11:24:22;;;;;;;4.15;2.60;;;;;;;20.44;48.95;100391.38;5545884;32;34330;-58
2022/09/12 11:27:30;;;;;;;4.55;2.25;;;;;;;20.35;50.32;100388.78;5547505;32;33718;-58
2022/09/12 11:30:45;;;;;;;2.70;2.17;;;;;;;20.41;50.19;100389.34;5545680;32;34545;-58
2022/09/12 11:33:50;;;;;;;3.37;2.40;;;;;;;20.33;51.57;100393.81;5549331;32;33669;-58
2022/09/12 11:37:21;;;;;;;6.82;2.50;;;;;;;20.33;51.01;100399.25;5545323;32;33829;-58
2022/09/12 11:40:54;;;;;;;5.22;2.47;;;;;;;20.28;51.51;100402.19;5545809;32;33273;-58
2022/09/12 11:44:20;;;;;;;5.10;2.80;;;;;;;20.26;52.28;100392.78;5544899;32;33082;-57
2022/09/12 11:47:23;;;;;;;;;;;;;;;20.23;52.00;100401.62;5545707;32;33683;-58
2022/09/12 11:50:29;;;;;;;4.97;2.87;;;;;;;20.32;52.47;100403.09;5543780;32;35486;-58
2022/09/12 11:53:37;;;;;;;7.10;3.70;;;;;;;20.52;53.54;100395.91;5546374;32;33684;-58
2022/09/12 11:56:45;;;;;;;5.47;3.17;;;;;;;20.74;53.55;100393.78;5547443;32;33936;-58
2022/09/12 11:59:57;;;;;;;7.47;3.53;;;;;;;20.92;54.67;100386.84;5543790;32;33782;-58
2022/09/12 12:03:07;;;;;;;4.37;3.67;;;;;;;21.04;54.40;100372.37;5542937;32;33244;-58
2022/09/12 12:06:18;;;;;;;5.70;3.55;;;;;;;20.81;54.01;100377.62;5547540;32;33784;-58
2022/09/12 12:09:20;;;;;;;4.30;3.45;;;;;;;20.75;54.80;100381.72;5546183;32;33661;-58
2022/09/12 12:12:26;;;;;;;6.97;3.40;;;;;;;20.72;53.31;100382.44;5545987;32;33746;-58
2022/09/12 12:15:29;;;;;;;4.18;3.35;;;;;;;20.52;52.56;100379.56;5547247;32;33757;-58
2022/09/12 12:18:35;;;;;;;3.92;3.10;;;;;;;20.44;52.69;100372.31;5548237;32;33391;-58
2022/09/12 12:21:46;;;;;;;6.90;4.05;;;;;;;20.44;53.18;100366.88;5546734;32;34272;-58
2022/09/12 12:25:23;;;;;;;6.45;3.37;;;;;;;20.60;54.30;100367.75;5545636;32;34599;-58
2022/09/12 12:28:49;;;;;;;5.10;3.40;;;;;;;20.85;52.53;100356.69;5548074;32;33793;-58
2022/09/12 12:32:00;;;;;;;5.72;3.00;;;;;;;20.84;53.20;100352.41;5545640;32;34427;-58
2022/09/12 12:35:39;;;;;;;6.53;3.12;;;;;;;20.96;52.49;100349.59;5545356;32;33835;-58
2022/09/12 12:38:41;;;;;;;3.92;3.08;;;;;;;21.03;53.06;100357.97;5546113;32;33968;-58
2022/09/12 12:41:44;;;;;;;4.47;2.50;;;;;;;21.16;51.86;100363.31;5548718;32;34374;-58
2022/09/12 12:44:50;;;;;;;4.37;3.20;;;;;;;21.15;49.67;100348.87;5546879;32;33789;-58
2022/09/12 12:47:58;;;;;;;4.30;2.45;;;;;;;21.29;51.54;100351.97;5546842;32;34283;-58
2022/09/12 12:51:28;;;;;;;5.40;2.53;;;;;;;21.43;48.16;100343.38;5546847;32;33656;-58
2022/09/12 12:54:39;;;;;;;6.00;2.28;;;;;;;21.65;48.58;100354.75;5544873;32;34269;-58
2022/09/12 12:57:49;;;;;;;6.18;2.58;;;;;;;21.57;47.61;100362.00;5549088;32;32161;-58
2022/09/12 13:01:12;;;;;;;3.47;2.53;;;;;;;21.31;47.86;100349.66;5550353;32;33390;-58
2022/09/12 13:04:18;;;;;;;4.03;2.40;;;;;;;21.22;48.16;100349.06;5550160;32;34445;-58
2022/09/12 13:07:24;;;;;;;;;;;;;;;21.23;48.82;100347.94;5550273;32;33742;-58
2022/09/12 13:10:29;;;;;;;4.18;2.47;;;;;;;21.18;49.83;100352.84;5549708;32;33986;-58
2022/09/12 13:13:56;;;;;;;2.75;2.00;;;;;;;21.12;48.43;100353.13;5548081;32;33980;-58
2022/09/12 13:17:03;;;;;;;3.78;2.45;;;;;;;21.09;48.96;100351.09;5547310;32;34433;-58
2022/09/12 13:20:11;;;;;;;5.32;2.10;;;;;;;21.09;48.37;100353.84;5549321;32;33779;-58
2022/09/12 13:23:31;;;;;;;4.43;2.25;;;;;;;21.02;48.72;100342.72;5545296;32;34402;-58
2022/09/12 13:26:40;;;;;;;4.47;2.53;;;;;;;21.06;49.33;100342.84;5550485;32;34332;-58
2022/09/12 13:29:43;;;;;;;4.90;2.33;;;;;;;21.15;49.99;100342.66;5548044;32;33615;-58
2022/09/12 13:32:45;;;;;;;2.95;2.40;;;;;;;21.09;47.91;100344.84;5548787;32;34277;-58
2022/09/12 13:36:12;;;;;;;6.35;2.60;;;;;;;21.07;48.48;100333.50;5548574;32;33585;-58
2022/09/12 13:39:26;;;;;;;6.15;2.30;;;;;;;21.13;48.87;100332.09;5549032;32;33353;-58
2022/09/12 13:42:38;;;;;;;4.47;2.30;;;;;;;21.25;50.65;100332.00;5550254;32;34459;-58
2022/09/12 13:45:42;;;;;;;7.70;2.37;;;;;;;21.27;49.05;100326.19;5549646;32;33825;-58
2022/09/12 13:48:45;;;;;;;4.05;2.40;;;;;;;21.25;48.56;100332.00;5548425;32;33794;-58
2022/09/12 13:52:00;;;;;;;4.50;2.10;;;;;;;21.33;46.55;100325.56;5546828;32;34375;-58
2022/09/12 13:55:21;;;;;;;3.78;2.30;;;;;;;21.28;47.27;100331.28;5550141;32;34081;-58
2022/09/12 13:58:33;;;;;;;4.43;2.10;;;;;;;21.22;46.81;100318.28;5549427;32;33712;-59
2022/09/12 14:01:39;;;;;;;3.08;1.92;;;;;;;21.15;48.09;100321.63;5549110;32;33701;-58
2022/09/12 14:08:10;;;;;;;4.87;2.22;;;;;;;20.99;46.55;100324.38;5550297;32;33675;-58
2022/09/12 14:11:29;;;;;;;5.90;2.37;;;;;;;20.98;47.44;100324.72;5548071;32;33614;-58
2022/09/12 14:14:35;;;;;;;5.53;2.35;;;;;;;20.97;47.33;100329.38;5549277;32;34368;-58
2022/09/12 14:17:38;;;;;;;;;;;;;;;20.97;47.09;100317.69;5550291;32;34462;-58
2022/09/12 14:20:41;;;;;;;2.87;2.05;;;;;;;20.95;46.53;100328.16;5548355;32;33703;-58
2022/09/12 14:23:46;;;;;;;4.12;2.20;;;;;;;20.92;46.36;100324.19;5548686;32;36205;-58
2022/09/12 14:26:53;;;;;;;6.82;2.35;;;;;;;20.87;47.46;100327.19;5544268;32;33949;-58
2022/09/12 14:30:07;;;;;;;17.17;3.22;;;;;;;21.03;47.36;100327.97;5548704;32;34470;-58
2022/09/12 14:33:09;;;;;;;4.78;2.25;;;;;;;21.07;47.26;100322.63;5541603;32;33735;-58
2022/09/12 14:36:33;;;;;;;3.95;1.87;;;;;;;21.14;47.14;100319.28;5548063;32;34244;-58
2022/09/12 14:39:41;;;;;;;2.53;1.80;;;;;;;21.20;43.60;100326.03;5547874;32;33706;-58
2022/09/12 14:42:45;;;;;;;2.00;1.42;;;;;;;21.29;43.55;100318.44;5549037;32;33887;-58
2022/09/12 14:45:58;;;;;;;3.83;2.03;;;;;;;21.26;43.91;100324.63;5545874;32;34454;-58
2022/09/12 14:49:19;;;;;;;3.30;1.90;;;;;;;21.29;43.89;100323.91;5547599;32;33758;-58
2022/09/12 14:52:32;;;;;;;2.95;1.80;;;;;;;21.28;43.72;100311.41;5546434;32;33754;-58
2022/09/12 14:55:43;;;;;;;8.90;1.83;;;;;;;21.33;42.69;100313.88;5546941;32;33664;-57
2022/09/12 14:58:45;;;;;;;2.33;1.40;;;;;;;21.42;42.90;100321.87;5549500;32;34450;-58
2022/09/12 15:01:47;;;;;;;1.62;1.27;;;;;;;21.32;42.20;100313.09;5548285;32;34592;-58
2022/09/12 15:05:15;;;;;;;5.78;1.62;;;;;;;21.26;41.85;100311.00;5549090;32;34286;-58
2022/09/12 15:08:17;;;;;;;3.08;1.50;;;;;;;21.14;41.95;100309.16;5540947;32;33488;-58
2022/09/12 15:11:22;;;;;;;3.22;1.45;;;;;;;21.09;42.92;100309.41;5549053;32;34453;-58
2022/09/12 15:14:24;;;;;;;3.83;1.60;;;;;;;21.18;42.37;100304.56;5548683;32;33584;-58
2022/09/12 15:17:26;;;;;;;5.28;1.60;;;;;;;21.17;43.58;100313.12;5547004;32;33968;-58
2022/09/12 15:20:28;;;;;;;5.53;1.70;;;;;;;21.24;42.45;100307.81;5549990;32;33998;-58
2022/09/12 15:23:41;;;;;;;3.72;1.50;;;;;;;21.31;42.61;100308.78;5549100;32;33935;-58
2022/09/12 15:26:44;;;;;;;3.53;1.30;;;;;;;21.27;42.62;100302.44;5547193;32;33623;-58
2022/09/12 15:29:46;;;;;;;2.58;1.50;;;;;;;21.31;43.15;100295.13;5548703;32;33687;-58
2022/09/12 15:32:48;;;;;;;4.37;1.50;;;;;;;21.24;44.02;100307.81;5544567;32;34360;-58
2022/09/12 15:35:51;;;;;;;1.92;1.20;;;;;;;21.23;41.85;100304.31;5548792;32;34369;-58
2022/09/12 15:38:54;;;;;;;1.92;1.20;;;;;;;21.18;42.12;100304.56;5547369;32;34560;-58
2022/09/12 15:41:56;;;;;;;1.70;1.20;;;;;;;21.22;40.92;100310.88;5546115;32;33817;-58
2022/09/12 15:44:59;;;;;;;2.85;1.40;;;;;;;21.18;40.21;100306.50;5549775;32;33667;-58
2022/09/12 15:48:03;;;;;;;3.17;1.40;;;;;;;21.10;41.07;100309.06;5549197;32;34007;-58
2022/09/12 15:51:17;;;;;;;2.55;1.58;;;;;;;21.04;41.61;100309.69;5549289;32;33593;-58
2022/09/12 15:54:20;;;;;;;1.30;1.20;;;;;;;21.08;41.42;100311.34;5549295;32;33366;-58
2022/09/12 15:57:22;;;;;;;5.28;1.50;;;;;;;21.04;42.41;100301.50;5549140;32;34369;-58
2022/09/12 16:00:24;;;;;;;1.87;1.42;;;;;;;20.97;42.36;100304.06;5548791;32;33744;-58
2022/09/12 16:03:28;;;;;;;2.92;1.15;;;;;;;20.88;42.65;100304.22;5549472;32;33734;-58
2022/09/12 16:06:32;;;;;;;3.58;1.45;;;;;;;20.90;42.85;100299.22;5549257;32;33724;-58
